EST,Max TemperatureF,Mean TemperatureF,Min TemperatureF,Max Dew PointF,MeanDew PointF,Min DewpointF,Max Humidity, Mean Humidity, Min Humidity, Max Sea Level PressureIn, Mean Sea Level PressureIn, Min Sea Level PressureIn, Max VisibilityMiles, Mean VisibilityMiles, Min VisibilityMiles, Max Wind SpeedMPH, Mean Wind SpeedMPH, Max Gust SpeedMPH,PrecipitationIn, CloudCover, Events, WindDirDegrees
2012-11-1,44,40,37,39,36,34,93,90,81,29.82,29.77,29.72,10,8,4,12,9,17,0.04,7,Rain,217
2012-11-2,48,42,37,32,29,26,76,62,47,30.03,29.89,29.78,10,10,10,17,7,24,0.00,7,,281
2012-11-3,41,39,37,32,29,27,79,68,62,30.15,30.10,30.03,10,10,10,9,5,,0.00,8,,289
2012-11-4,46,38,33,33,30,26,83,71,53,30.12,30.10,30.08,10,10,10,8,2,,0.00,6,,10
2012-11-5,41,36,30,30,28,25,85,70,55,30.16,30.14,30.10,10,10,10,6,1,,0.00,7,,354
2012-11-6,52,38,25,29,26,22,89,62,38,30.13,30.01,29.92,10,10,6,10,2,,0.00,0,,76
2012-11-7,42,36,30,30,27,25,85,72,58,30.04,29.95,29.89,10,10,8,9,3,,0.00,0,,14
2012-11-8,45,34,23,27,24,20,89,72,46,30.20,30.15,30.05,10,8,4,9,1,,0.00,0,,282
2012-11-9,54,40,25,33,28,22,89,68,43,30.30,30.24,30.19,10,10,9,7,1,,0.00,0,,230
2012-11-10,69,50,32,38,33,28,89,58,29,30.30,30.25,30.20,10,10,8,10,2,,0.00,2,Rain,201
2012-11-11,73,54,36,39,34,30,86,50,21,30.40,30.28,30.23,10,10,10,12,2,18,0.00,0,,185
2012-11-12,71,60,50,49,46,39,89,59,44,30.35,30.19,30.00,10,9,4,22,8,36,0.04,4,Rain,208
2012-11-13,42,36,30,29,25,23,85,66,47,30.52,30.44,30.34,10,10,10,9,5,,0.00,2,Rain,303
2012-11-14,44,34,23,26,24,20,89,71,49,30.53,30.46,30.36,10,10,9,10,3,,0.00,0,,25
2012-11-15,50,36,23,29,26,21,92,71,41,30.35,30.32,30.28,10,10,7,0,0,,0.00,0,,-1
2012-11-16,50,38,25,30,26,22,92,70,41,30.48,30.40,30.32,10,9,5,6,1,,0.00,0,,10
2012-11-17,57,41,25,31,24,19,89,58,26,30.58,30.52,30.48,10,10,7,10,2,16,0.00,0,,62
2012-11-18,60,44,27,31,27,22,81,55,32,30.52,30.46,30.40,10,10,10,7,2,,0.00,0,,54
2012-11-19,55,42,28,34,30,25,85,65,38,30.41,30.32,30.19,10,10,10,7,1,,0.00,0,,356
2012-11-20,54,43,32,35,33,30,92,72,47,30.19,30.15,30.09,10,10,6,4,0,,0.00,2,,165
2012-11-21,57,42,28,36,29,26,92,67,30,30.23,30.20,30.14,10,9,4,4,0,,0.00,0,,-1
2012-11-22,61,44,27,31,27,24,89,60,27,30.28,30.19,30.06,10,10,8,0,0,,0.00,0,,-1
2012-11-23,54,44,30,47,36,17,93,71,51,30.06,29.94,29.86,10,8,2,18,8,37,0.07,5,Rain,242
2012-11-24,30,30,30,22,20,17,72,66,57,30.13,30.09,30.05,10,10,5,12,9,20,0.00,8,Snow,266
2012-11-25,44,36,28,21,17,15,66,52,31,30.11,30.02,29.90,10,10,10,15,9,22,0.00,4,,226
2012-11-26,51,42,32,30,25,16,69,50,36,30.19,30.13,30.04,10,10,10,8,2,,0.00,4,Rain,235
2012-11-27,42,38,33,34,32,28,96,88,62,30.30,30.23,30.16,10,4,2,8,4,,0.12,8,Rain-Snow,6
2012-11-28,39,34,28,31,25,21,89,70,49,30.40,30.33,30.25,10,10,7,15,4,23,0.00,5,,247
2012-11-29,46,36,25,26,22,19,88,65,38,30.45,30.37,30.30,10,10,8,9,2,,0.01,0,,208
2012-11-30,55,40,26,32,27,21,84,65,37,30.33,30.28,30.22,10,10,10,13,2,,0.00,1,,201